Time;durP1;ratioP1;P1;durP2;ratioP2;P2;SDS_P1;SDS_P2;PMS_P1;PMS_P2;Temp;Humidity;BMP_temperature;BMP_pressure;BME280_temperature;BME280_humidity;BME280_pressure;Samples;Min_cycle;Max_cycle;Signal;HPM_P1;HPM_P2
2022/06/10 00:00:50;;;;;;;6.43;2.00;;;12.30;99.90;;;;;;5031342;28;20455;-66
2022/06/10 00:03:17;;;;;;;6.63;2.22;;;12.30;99.90;;;;;;5031211;28;20053;-66
2022/06/10 00:05:46;;;;;;;6.65;2.17;;;12.30;99.90;;;;;;5031286;28;20045;-66
2022/06/10 00:08:16;;;;;;;5.53;2.13;;;12.30;99.90;;;;;;5031135;28;20057;-63
2022/06/10 00:10:45;;;;;;;6.05;1.80;;;12.20;99.90;;;;;;5014777;28;20037;-65
2022/06/10 00:13:12;;;;;;;5.65;2.20;;;12.30;99.90;;;;;;5014829;28;20042;-64
2022/06/10 00:15:39;;;;;;;6.63;2.08;;;12.30;99.90;;;;;;5031317;28;20530;-66
2022/06/10 00:18:05;;;;;;;6.25;2.20;;;12.20;99.90;;;;;;5031071;28;20053;-64
2022/06/10 00:20:32;;;;;;;5.05;2.03;;;12.20;99.90;;;;;;5014774;28;20054;-65
2022/06/10 00:22:59;;;;;;;4.72;2.08;;;12.20;99.90;;;;;;5014747;28;20053;-65
2022/06/10 00:25:25;;;;;;;7.93;1.95;;;12.20;99.90;;;;;;5030931;28;20041;-65
2022/06/10 00:27:52;;;;;;;9.15;3.03;;;12.10;99.90;;;;;;5042924;28;20135;-65
2022/06/10 00:30:20;;;;;;;10.57;2.10;;;12.10;99.90;;;;;;5053046;28;20045;-64
2022/06/10 00:32:46;;;;;;;9.93;2.47;;;12.10;99.90;;;;;;5053140;28;20028;-64
2022/06/10 00:35:14;;;;;;;6.88;2.40;;;12.10;99.90;;;;;;5051794;28;20101;-65
2022/06/10 00:37:40;;;;;;;7.38;2.58;;;12.00;99.90;;;;;;5051798;28;20440;-65
2022/06/10 00:40:07;;;;;;;7.97;2.30;;;12.00;99.90;;;;;;5053052;28;20499;-65
2022/06/10 00:42:35;;;;;;;9.82;2.20;;;12.00;99.90;;;;;;5052639;28;20036;-64
2022/06/10 00:45:02;;;;;;;4.90;2.22;;;12.00;99.90;;;;;;5052154;28;20433;-64
2022/06/10 00:47:36;;;;;;;6.85;2.45;;;11.90;99.90;;;;;;5052802;28;20171;-65
2022/06/10 00:50:28;;;;;;;6.82;2.08;;;11.90;99.90;;;;;;5052730;28;20079;-66
2022/06/10 00:52:59;;;;;;;9.80;2.20;;;11.90;99.90;;;;;;5052762;28;20421;-64
2022/06/10 00:55:29;;;;;;;5.78;2.30;;;11.90;99.90;;;;;;5051304;28;20044;-64
2022/06/10 00:58:24;;;;;;;6.15;2.75;;;11.80;99.90;;;;;;5052823;28;20732;-64
2022/06/10 01:00:50;;;;;;;8.05;1.90;;;11.80;99.90;;;;;;5052466;28;20036;-64
2022/06/10 01:03:16;;;;;;;5.25;2.15;;;11.80;99.90;;;;;;5051114;28;20400;-66
2022/06/10 01:05:42;;;;;;;7.80;2.40;;;11.70;99.90;;;;;;5052616;28;20032;-64
2022/06/10 01:08:13;;;;;;;6.57;2.15;;;11.70;99.90;;;;;;5052518;28;20037;-64
2022/06/10 01:11:15;;;;;;;7.68;2.00;;;11.60;99.90;;;;;;5052254;28;20112;-63
2022/06/10 01:13:49;;;;;;;6.63;2.43;;;11.60;99.90;;;;;;5011994;28;20820;-65
2022/06/10 01:16:30;;;;;;;6.88;2.17;;;11.60;99.90;;;;;;5029322;28;20042;-64
2022/06/10 01:19:13;;;;;;;6.05;2.22;;;11.50;99.90;;;;;;5029738;28;20092;-64
2022/06/10 01:21:50;;;;;;;8.77;2.70;;;11.50;99.90;;;;;;5029454;28;20046;-65
2022/06/10 01:24:19;;;;;;;8.10;2.20;;;11.50;99.90;;;;;;5029647;28;20404;-64
2022/06/10 01:30:07;;;;;;;6.00;2.38;;;11.50;99.90;;;;;;5029429;28;20041;-64
2022/06/10 01:32:54;;;;;;;6.85;2.50;;;11.50;99.90;;;;;;5029194;28;20057;-65
2022/06/10 01:35:32;;;;;;;7.88;2.38;;;11.40;99.90;;;;;;5012825;28;20037;-65
2022/06/10 01:38:37;;;;;;;8.63;2.50;;;11.40;99.90;;;;;;5029409;28;20049;-64
2022/06/10 01:41:05;;;;;;;11.15;2.20;;;11.40;99.90;;;;;;5029345;28;20033;-65
2022/06/10 01:43:52;;;;;;;7.05;2.83;;;11.30;99.90;;;;;;5028750;28;20054;-66
2022/06/10 01:46:28;;;;;;;6.18;2.30;;;11.30;99.90;;;;;;5029052;28;20088;-64
2022/06/10 01:49:24;;;;;;;8.70;2.30;;;11.30;99.90;;;;;;5012768;28;20048;-66
2022/06/10 01:52:06;;;;;;;6.90;2.55;;;11.30;99.90;;;;;;5051352;28;20037;-64
2022/06/10 01:54:54;;;;;;;12.33;2.43;;;11.30;99.90;;;;;;5050189;28;20036;-65
2022/06/10 01:57:30;;;;;;;10.40;2.20;;;11.30;99.90;;;;;;5050207;28;20044;-66
2022/06/10 02:00:00;;;;;;;4.88;2.63;;;11.30;99.90;;;;;;5050339;28;20076;-64
2022/06/10 02:02:32;;;;;;;5.78;2.38;;;11.30;99.90;;;;;;5051274;28;20060;-65
2022/06/10 02:05:09;;;;;;;8.77;2.37;;;11.20;99.90;;;;;;5051372;28;20060;-64
2022/06/10 02:07:44;;;;;;;7.95;2.22;;;11.20;99.90;;;;;;5051566;28;20503;-65
2022/06/10 02:10:19;;;;;;;8.85;2.35;;;11.20;99.90;;;;;;5049966;28;20069;-63
2022/06/10 02:12:52;;;;;;;8.70;2.38;;;11.20;99.90;;;;;;5051132;28;20055;-65
2022/06/10 02:15:30;;;;;;;5.65;2.10;;;11.20;99.90;;;;;;5051393;28;20154;-65
2022/06/10 02:18:08;;;;;;;5.07;2.10;;;11.20;99.90;;;;;;5051020;28;20548;-64
2022/06/10 02:20:36;;;;;;;9.23;2.80;;;11.20;99.90;;;;;;5049967;28;20041;-65
2022/06/10 02:23:05;;;;;;;8.98;2.50;;;11.20;99.90;;;;;;5049531;28;20041;-65
2022/06/10 02:25:40;;;;;;;6.25;2.20;;;11.20;99.90;;;;;;5050012;28;20045;-64
2022/06/10 02:28:10;;;;;;;6.97;2.83;;;11.20;99.90;;;;;;5050932;28;20032;-64
2022/06/10 02:30:49;;;;;;;5.90;2.00;;;11.20;99.90;;;;;;5049651;28;20045;-64
2022/06/10 02:33:15;;;;;;;7.20;2.80;;;11.10;99.90;;;;;;5049971;28;20519;-65
2022/06/10 02:36:02;;;;;;;9.88;2.80;;;11.10;99.90;;;;;;5050620;28;20037;-65
2022/06/10 02:38:50;;;;;;;8.98;2.80;;;11.10;99.90;;;;;;5049524;28;20052;-66
2022/06/10 02:41:26;;;;;;;9.85;2.85;;;11.20;99.90;;;;;;5050959;28;20060;-65
2022/06/10 02:43:57;;;;;;;6.90;2.22;;;11.20;99.90;;;;;;5049245;28;20040;-65
2022/06/10 02:46:33;;;;;;;6.97;2.33;;;11.20;99.90;;;;;;5049404;28;20049;-65
2022/06/10 02:49:15;;;;;;;5.32;2.08;;;11.20;99.90;;;;;;5049337;28;20119;-65
2022/06/10 02:51:42;;;;;;;8.30;2.20;;;11.20;99.90;;;;;;5050885;28;20037;-65
2022/06/10 02:54:15;;;;;;;5.65;2.20;;;11.20;99.90;;;;;;5049092;28;20087;-64
2022/06/10 02:56:41;;;;;;;8.73;2.10;;;11.20;99.90;;;;;;5049332;28;20155;-65
2022/06/10 03:02:12;;;;;;;6.25;2.45;;;11.20;99.90;;;;;;5050275;28;20041;-65
2022/06/10 03:05:02;;;;;;;7.82;2.20;;;11.10;99.90;;;;;;5030075;28;20067;-65
2022/06/10 03:07:43;;;;;;;9.30;2.60;;;11.10;99.90;;;;;;5048266;28;20045;-65
2022/06/10 03:10:32;;;;;;;9.15;1.80;;;11.10;99.90;;;;;;5054959;28;20199;-63
2022/06/10 03:13:32;;;;;;;6.88;2.15;;;11.10;99.90;;;;;;5052880;28;20049;-65
2022/06/10 03:16:26;;;;;;;9.00;2.65;;;11.10;99.90;;;;;;5055337;28;20478;-63
2022/06/10 03:19:03;;;;;;;10.30;2.50;;;11.10;99.90;;;;;;5056638;28;20552;-65
2022/06/10 03:21:51;;;;;;;6.47;1.95;;;11.10;99.90;;;;;;5055295;28;20071;-64
2022/06/10 03:24:44;;;;;;;7.13;2.05;;;11.10;99.90;;;;;;5055342;28;20047;-65
2022/06/10 03:27:16;;;;;;;9.55;3.13;;;11.10;99.90;;;;;;5056489;28;20044;-65
2022/06/10 03:29:57;;;;;;;8.50;2.30;;;11.10;99.90;;;;;;5056611;28;20048;-64
2022/06/10 03:32:48;;;;;;;6.97;2.60;;;11.10;99.90;;;;;;5055275;28;20056;-65
2022/06/10 03:35:22;;;;;;;8.90;2.60;;;11.10;99.90;;;;;;5056408;28;20429;-64
2022/06/10 03:37:49;;;;;;;7.10;2.88;;;11.20;99.90;;;;;;5056558;28;20049;-65
2022/06/10 03:40:19;;;;;;;9.68;2.78;;;11.20;99.90;;;;;;5055182;28;20079;-64
2022/06/10 03:42:48;;;;;;;11.68;2.60;;;11.20;99.90;;;;;;5038985;28;20044;-65
2022/06/10 03:45:18;;;;;;;11.00;2.35;;;11.20;99.90;;;;;;5056680;28;20037;-64
2022/06/10 03:47:44;;;;;;;9.00;2.80;;;11.30;99.90;;;;;;5056855;28;20032;-65
2022/06/10 03:50:13;;;;;;;9.95;2.45;;;11.30;99.90;;;;;;5056649;28;20037;-64
2022/06/10 03:52:40;;;;;;;7.55;2.75;;;11.40;99.90;;;;;;5056612;28;20052;-63
2022/06/10 03:55:08;;;;;;;7.60;2.55;;;11.50;99.90;;;;;;5055594;28;20059;-65
2022/06/10 03:57:34;;;;;;;10.40;2.50;;;11.50;99.90;;;;;;5055391;28;20067;-65
2022/06/10 04:00:00;;;;;;;6.47;2.38;;;11.60;99.90;;;;;;5055432;28;20036;-65
2022/06/10 04:02:26;;;;;;;6.30;2.38;;;11.60;99.90;;;;;;5056359;28;20095;-65
2022/06/10 04:04:52;;;;;;;9.20;2.20;;;11.60;99.90;;;;;;5055559;28;20032;-65
2022/06/10 04:07:19;;;;;;;8.43;2.60;;;11.70;99.90;;;;;;5056288;28;20123;-65
2022/06/10 04:09:46;;;;;;;5.40;2.20;;;11.80;99.90;;;;;;5055333;28;20040;-65
2022/06/10 04:12:11;;;;;;;13.23;2.65;;;11.80;99.90;;;;;;5055626;28;20036;-65
2022/06/10 04:14:37;;;;;;;9.98;3.03;;;11.90;99.90;;;;;;5055313;28;20477;-64
2022/06/10 04:17:04;;;;;;;8.85;2.72;;;12.00;99.90;;;;;;5055319;28;20029;-64
2022/06/10 04:19:30;;;;;;;7.28;2.70;;;12.10;99.90;;;;;;5054125;28;20087;-64
2022/06/10 04:21:56;;;;;;;7.47;2.95;;;12.10;99.90;;;;;;5052603;28;20068;-65
2022/06/10 04:24:21;;;;;;;7.82;2.67;;;12.20;99.90;;;;;;5051815;28;20095;-64
2022/06/10 04:26:47;;;;;;;9.73;3.65;;;12.20;99.90;;;;;;5052015;28;20395;-66
2022/06/10 04:29:14;;;;;;;6.40;2.70;;;12.30;99.90;;;;;;5053148;28;20507;-64
2022/06/10 04:31:40;;;;;;;8.55;3.00;;;12.40;99.90;;;;;;5053094;28;20087;-65
2022/06/10 04:34:05;;;;;;;13.68;3.30;;;12.40;99.90;;;;;;5053106;28;20033;-65
2022/06/10 04:36:32;;;;;;;7.97;2.85;;;12.50;99.90;;;;;;5051451;28;20041;-64
2022/06/10 04:38:57;;;;;;;8.18;3.20;;;12.60;99.90;;;;;;5053188;28;20047;-65
2022/06/10 04:41:23;;;;;;;10.68;2.55;;;12.70;99.90;;;;;;5051627;28;20033;-64
2022/06/10 04:43:49;;;;;;;8.20;2.95;;;12.80;99.90;;;;;;5052908;28;20396;-64
2022/06/10 04:46:33;;;;;;;9.40;3.40;;;12.90;99.90;;;;;;5051503;28;20037;-64
2022/06/10 04:48:59;;;;;;;7.82;3.25;;;13.00;99.90;;;;;;5051734;28;20037;-65
2022/06/10 04:51:25;;;;;;;9.55;3.15;;;13.10;99.90;;;;;;5051502;28;20094;-64
2022/06/10 04:53:51;;;;;;;8.52;3.10;;;13.20;99.90;;;;;;5052911;28;20051;-64
2022/06/10 04:56:17;;;;;;;7.75;3.17;;;13.40;99.90;;;;;;5048172;28;20068;-64
2022/06/10 04:58:42;;;;;;;8.95;3.17;;;13.60;99.90;;;;;;5050932;28;20453;-66
2022/06/10 05:01:09;;;;;;;9.38;3.08;;;13.60;99.90;;;;;;5051272;28;20080;-64
2022/06/10 05:03:35;;;;;;;10.20;2.90;;;13.70;99.90;;;;;;5051678;28;20063;-65
2022/06/10 05:06:01;;;;;;;11.25;3.50;;;13.70;99.90;;;;;;5050973;28;20032;-64
2022/06/10 05:08:26;;;;;;;12.82;3.60;;;13.60;99.90;;;;;;5052314;28;20087;-65
2022/06/10 05:10:52;;;;;;;10.07;3.45;;;13.60;99.90;;;;;;5052106;28;20044;-65
2022/06/10 05:13:20;;;;;;;10.35;3.40;;;13.60;99.90;;;;;;5050826;28;20044;-63
2022/06/10 05:15:47;;;;;;;11.75;3.08;;;13.60;99.90;;;;;;5050343;28;20048;-65
2022/06/10 05:18:15;;;;;;;12.88;3.40;;;13.60;99.90;;;;;;5050948;28;20144;-65
2022/06/10 05:20:42;;;;;;;11.98;3.20;;;13.60;99.90;;;;;;5051915;28;20115;-65
2022/06/10 05:23:10;;;;;;;10.98;3.75;;;13.60;99.90;;;;;;5050614;28;20116;-65
2022/06/10 05:25:37;;;;;;;6.78;2.63;;;13.60;99.90;;;;;;5051583;28;20430;-64
2022/06/10 05:28:03;;;;;;;11.65;3.03;;;13.60;99.90;;;;;;5051719;28;20033;-63
2022/06/10 05:30:30;;;;;;;13.98;3.53;;;13.60;99.90;;;;;;5052298;28;20045;-65
2022/06/10 05:32:57;;;;;;;11.68;2.90;;;13.60;99.90;;;;;;5051514;28;20028;-65
2022/06/10 05:35:23;;;;;;;11.65;3.10;;;13.70;99.90;;;;;;5052062;28;20115;-64
2022/06/10 05:37:49;;;;;;;12.77;2.97;;;13.70;99.90;;;;;;5051910;28;20119;-65
2022/06/10 05:40:17;;;;;;;11.13;3.05;;;13.80;99.90;;;;;;5050695;28;20033;-63
2022/06/10 05:42:45;;;;;;;13.38;3.40;;;13.80;99.90;;;;;;5051999;28;20156;-62
2022/06/10 05:45:13;;;;;;;10.25;2.88;;;13.80;99.90;;;;;;5051683;28;20032;-64
2022/06/10 05:47:41;;;;;;;13.02;3.08;;;13.90;99.90;;;;;;5050269;28;20079;-66
2022/06/10 05:50:19;;;;;;;11.13;3.08;;;13.90;99.90;;;;;;5050346;28;20036;-65
2022/06/10 05:52:44;;;;;;;6.95;3.05;;;13.90;99.90;;;;;;5051487;28;20052;-64
2022/06/10 05:55:11;;;;;;;8.93;2.95;;;14.00;99.90;;;;;;5050542;28;20049;-66
2022/06/10 05:57:39;;;;;;;11.02;3.22;;;14.00;99.90;;;;;;5051558;28;20098;-64
2022/06/10 06:00:11;;;;;;;8.75;2.83;;;14.10;99.90;;;;;;5051425;28;20040;-64
2022/06/10 06:02:37;;;;;;;12.00;3.83;;;14.10;99.90;;;;;;5050101;28;20135;-65
2022/06/10 06:05:03;;;;;;;13.75;3.78;;;14.20;99.90;;;;;;5051148;28;20116;-63
2022/06/10 06:07:29;;;;;;;12.20;3.50;;;14.20;99.90;;;;;;5050346;28;20500;-66
2022/06/10 06:09:55;;;;;;;8.95;3.60;;;14.30;99.90;;;;;;5049804;28;20443;-65
2022/06/10 06:12:22;;;;;;;11.88;2.90;;;14.30;99.90;;;;;;5051485;28;20045;-64
2022/06/10 06:14:48;;;;;;;11.43;3.60;;;14.40;99.90;;;;;;5050124;28;20564;-64
2022/06/10 06:17:15;;;;;;;10.98;3.60;;;14.40;99.90;;;;;;5049862;28;20043;-64
2022/06/10 06:19:42;;;;;;;11.52;3.60;;;14.40;99.90;;;;;;5051164;28;20037;-65
2022/06/10 06:22:08;;;;;;;8.45;2.85;;;14.40;99.90;;;;;;5049845;28;20041;-64
2022/06/10 06:24:35;;;;;;;11.02;3.25;;;14.50;99.90;;;;;;5049827;28;20041;-65
2022/06/10 06:27:01;;;;;;;6.95;2.80;;;14.50;99.90;;;;;;5049696;28;20041;-65
2022/06/10 06:29:27;;;;;;;10.40;2.88;;;14.50;99.90;;;;;;5049891;28;20044;-65
2022/06/10 06:31:53;;;;;;;11.18;3.33;;;14.60;99.90;;;;;;5050914;28;20373;-66
2022/06/10 06:34:20;;;;;;;13.45;3.47;;;14.60;99.90;;;;;;5049560;28;20075;-65
2022/06/10 06:36:47;;;;;;;11.57;3.25;;;14.60;99.90;;;;;;5049798;28;20534;-66
2022/06/10 06:39:16;;;;;;;13.13;4.25;;;14.70;99.90;;;;;;5049550;28;20142;-63
2022/06/10 06:41:43;;;;;;;11.48;3.10;;;14.80;99.90;;;;;;5050720;28;20048;-66
2022/06/10 06:44:08;;;;;;;12.23;3.35;;;14.80;99.90;;;;;;5049865;28;20040;-63
2022/06/10 06:46:36;;;;;;;9.20;3.30;;;14.90;99.90;;;;;;5048305;28;20408;-64
2022/06/10 06:49:05;;;;;;;9.27;3.20;;;15.00;99.90;;;;;;5049542;28;20041;-64
2022/06/10 06:51:31;;;;;;;11.40;3.63;;;15.00;99.90;;;;;;5050831;28;20037;-64
2022/06/10 06:53:58;;;;;;;13.88;3.55;;;15.10;99.90;;;;;;5050170;28;20045;-65
2022/06/10 06:56:26;;;;;;;9.90;3.45;;;15.20;99.90;;;;;;5049191;28;20500;-64
2022/06/10 06:58:52;;;;;;;12.82;3.30;;;15.30;99.90;;;;;;5050275;28;20048;-65
2022/06/10 07:01:18;;;;;;;10.68;3.33;;;15.40;99.90;;;;;;5050141;28;20052;-66
2022/06/10 07:03:43;;;;;;;8.82;4.00;;;15.40;99.90;;;;;;5050106;28;20041;-64
2022/06/10 07:06:10;;;;;;;8.45;3.10;;;15.40;99.90;;;;;;5050023;28;20104;-65
2022/06/10 07:08:37;;;;;;;11.90;3.70;;;15.50;99.90;;;;;;5050474;28;20036;-66
2022/06/10 07:11:04;;;;;;;8.95;3.60;;;15.50;99.90;;;;;;5049213;28;20037;-65
2022/06/10 07:13:30;;;;;;;8.80;3.70;;;15.50;99.90;;;;;;5049992;28;20045;-65
2022/06/10 07:15:58;;;;;;;9.85;3.80;;;15.50;99.90;;;;;;5050272;28;20045;-66
2022/06/10 07:18:24;;;;;;;11.55;3.95;;;15.50;99.90;;;;;;5049504;28;20122;-65
2022/06/10 07:20:50;;;;;;;9.68;3.95;;;15.60;99.90;;;;;;5050219;28;20041;-65
2022/06/10 07:23:16;;;;;;;8.90;3.55;;;15.60;99.90;;;;;;5048624;28;20064;-65
2022/06/10 07:25:42;;;;;;;11.98;4.10;;;15.70;99.90;;;;;;5050467;28;20036;-63
2022/06/10 07:28:11;;;;;;;9.18;3.58;;;15.90;99.90;;;;;;5050470;28;20041;-65
2022/06/10 07:30:38;;;;;;;9.55;3.80;;;15.90;99.90;;;;;;5050200;28;20041;-64
2022/06/10 07:33:04;;;;;;;8.50;3.72;;;16.10;99.90;;;;;;5032797;28;20484;-65
2022/06/10 07:35:30;;;;;;;9.20;3.30;;;16.20;99.90;;;;;;5049064;28;20391;-64
2022/06/10 07:37:57;;;;;;;15.50;4.63;;;16.20;99.90;;;;;;5048961;28;20040;-65
2022/06/10 07:43:18;;;;;;;8.25;3.20;;;16.30;99.90;;;;;;5050275;28;20389;-63
2022/06/10 07:45:44;;;;;;;12.10;3.53;;;16.30;99.90;;;;;;5048943;28;20041;-65
2022/06/10 07:48:13;;;;;;;11.50;3.33;;;16.30;99.90;;;;;;5050129;28;20037;-65
2022/06/10 07:50:41;;;;;;;9.40;3.15;;;16.30;99.90;;;;;;5048642;28;20049;-63
2022/06/10 07:53:07;;;;;;;11.45;3.60;;;16.40;99.90;;;;;;5050435;28;20499;-64
2022/06/10 07:55:33;;;;;;;10.52;2.90;;;16.40;99.90;;;;;;5051188;28;20087;-64
2022/06/10 07:57:59;;;;;;;9.63;2.95;;;16.50;99.90;;;;;;5053984;28;20123;-65
2022/06/10 08:00:25;;;;;;;9.57;2.70;;;16.40;99.90;;;;;;5053635;28;20503;-64
2022/06/10 08:02:50;;;;;;;8.75;3.30;;;16.40;99.90;;;;;;5052201;28;20438;-65
2022/06/10 08:05:17;;;;;;;7.25;2.53;;;16.40;99.90;;;;;;5054094;28;20048;-65
2022/06/10 08:07:43;;;;;;;8.63;2.95;;;16.40;99.90;;;;;;5053447;28;20559;-65
2022/06/10 08:10:20;;;;;;;9.45;2.85;;;16.40;99.90;;;;;;5054015;28;20033;-65
2022/06/10 08:12:47;;;;;;;10.40;2.55;;;16.40;99.90;;;;;;5053455;28;20036;-64
2022/06/10 08:15:15;;;;;;;8.65;2.67;;;16.40;99.90;;;;;;5052251;28;20032;-65
2022/06/10 08:17:41;;;;;;;8.70;2.40;;;16.40;99.90;;;;;;5052022;28;20417;-65
2022/06/10 08:20:11;;;;;;;9.25;2.83;;;16.40;99.90;;;;;;5053604;28;20029;-66
2022/06/10 08:22:37;;;;;;;13.05;3.67;;;16.50;99.90;;;;;;5053483;28;20119;-64
2022/06/10 08:25:06;;;;;;;10.02;2.88;;;16.50;99.90;;;;;;5053547;28;20037;-64
2022/06/10 08:27:34;;;;;;;8.50;2.85;;;16.60;99.90;;;;;;5052094;28;20052;-64
2022/06/10 08:30:03;;;;;;;9.70;2.67;;;16.60;99.90;;;;;;5052978;28;20123;-65
2022/06/10 08:32:28;;;;;;;14.50;3.28;;;16.70;99.90;;;;;;5053274;28;20071;-65
2022/06/10 08:34:54;;;;;;;8.45;2.90;;;16.80;99.90;;;;;;5051663;28;20037;-66
2022/06/10 08:37:19;;;;;;;9.45;3.55;;;16.80;99.90;;;;;;5051894;28;20484;-65
2022/06/10 08:39:45;;;;;;;8.45;2.53;;;16.80;99.90;;;;;;5046610;28;20036;-64
2022/06/10 08:42:23;;;;;;;9.20;2.80;;;16.90;99.90;;;;;;5051880;28;20044;-64
2022/06/10 08:45:02;;;;;;;6.10;2.35;;;16.90;99.90;;;;;;5052586;28;20045;-63
2022/06/10 08:47:52;;;;;;;13.10;2.30;;;17.00;99.90;;;;;;5052942;28;20384;-64
2022/06/10 08:50:20;;;;;;;10.18;3.22;;;17.00;99.90;;;;;;5051666;28;20037;-64
2022/06/10 08:52:48;;;;;;;7.75;2.25;;;17.10;99.90;;;;;;5051306;28;20463;-65
2022/06/10 08:55:42;;;;;;;8.88;2.80;;;17.00;99.90;;;;;;5052906;28;20041;-65
2022/06/10 08:58:22;;;;;;;8.60;2.75;;;17.00;99.90;;;;;;5050860;28;20044;-64
2022/06/10 09:00:50;;;;;;;8.38;2.80;;;16.90;99.90;;;;;;5052239;28;20037;-65
2022/06/10 09:03:35;;;;;;;7.20;2.55;;;16.90;99.90;;;;;;5050780;28;20123;-64
2022/06/10 09:06:06;;;;;;;10.73;2.63;;;16.90;99.90;;;;;;5049973;28;20508;-64
2022/06/10 09:08:37;;;;;;;12.18;3.33;;;16.90;99.90;;;;;;5052222;28;20048;-65
2022/06/10 09:11:35;;;;;;;8.77;2.25;;;16.80;99.90;;;;;;5050743;28;20045;-64
2022/06/10 09:14:21;;;;;;;7.35;2.30;;;16.90;99.90;;;;;;5048720;28;20068;-65
2022/06/10 09:17:25;;;;;;;10.23;2.60;;;16.90;99.90;;;;;;5052674;28;20048;-65
2022/06/10 09:20:09;;;;;;;9.90;2.72;;;17.00;99.90;;;;;;5052337;28;20048;-65
2022/06/10 09:23:02;;;;;;;7.22;2.40;;;17.10;99.90;;;;;;5051451;28;20396;-65
2022/06/10 09:25:43;;;;;;;7.65;2.80;;;17.10;99.90;;;;;;5051305;28;20045;-65
2022/06/10 09:28:09;;;;;;;8.98;2.40;;;17.30;99.90;;;;;;5051016;28;20410;-66
2022/06/10 09:30:57;;;;;;;8.27;2.28;;;17.30;99.90;;;;;;5050893;28;20043;-65
2022/06/10 09:33:27;;;;;;;7.85;2.20;;;17.40;99.90;;;;;;5052264;28;20450;-64
2022/06/10 09:36:05;;;;;;;9.13;2.33;;;17.40;99.90;;;;;;5051094;28;20106;-64
2022/06/10 09:38:45;;;;;;;8.57;2.35;;;17.40;99.90;;;;;;5052038;28;20041;-63
2022/06/10 09:41:30;;;;;;;8.23;2.35;;;17.40;99.90;;;;;;5051918;28;20040;-64
2022/06/10 09:44:19;;;;;;;7.57;2.28;;;17.50;99.90;;;;;;5051861;28;20049;-64
2022/06/10 09:47:01;;;;;;;8.90;2.28;;;17.60;99.90;;;;;;5052126;28;20041;-66
2022/06/10 09:49:47;;;;;;;10.57;2.30;;;17.70;99.90;;;;;;5050636;28;20521;-65
2022/06/10 09:52:30;;;;;;;7.90;2.20;;;17.90;99.90;;;;;;5051809;28;20287;-66
2022/06/10 09:55:21;;;;;;;10.07;2.30;;;18.00;99.90;;;;;;5050410;28;20037;-64
2022/06/10 09:57:55;;;;;;;9.48;2.88;;;18.10;99.90;;;;;;5050806;28;20045;-65
2022/06/10 10:00:52;;;;;;;9.07;2.30;;;18.10;99.90;;;;;;5050410;28;20480;-65
2022/06/10 10:03:39;;;;;;;7.72;2.13;;;18.10;99.90;;;;;;5051088;28;20099;-65
2022/06/10 10:06:26;;;;;;;11.85;2.78;;;18.30;99.90;;;;;;5050018;28;20037;-64
2022/06/10 10:09:03;;;;;;;9.40;2.75;;;18.30;99.90;;;;;;5051494;28;20033;-65
2022/06/10 10:11:45;;;;;;;11.65;2.42;;;18.40;99.90;;;;;;5050513;28;20091;-66
2022/06/10 10:14:22;;;;;;;11.20;2.80;;;18.50;99.90;;;;;;5050086;28;20037;-65
2022/06/10 10:17:14;;;;;;;11.18;3.35;;;18.60;99.90;;;;;;5050302;28;20499;-64
2022/06/10 10:19:46;;;;;;;;;;;18.70;99.90;;;;;;5049654;28;20051;-65
2022/06/10 10:22:39;;;;;;;8.32;2.38;;;18.90;99.90;;;;;;5051011;28;20396;-64
2022/06/10 10:25:14;;;;;;;9.27;2.55;;;19.10;99.90;;;;;;5051198;28;20041;-66
2022/06/10 10:27:40;;;;;;;8.35;2.30;;;19.50;99.90;;;;;;5049858;28;20045;-65
2022/06/10 10:30:33;;;;;;;9.77;2.55;;;19.80;99.90;;;;;;5048336;28;20387;-66
2022/06/10 10:33:03;;;;;;;8.88;2.00;;;20.00;99.90;;;;;;5049334;28;20049;-66
2022/06/10 10:35:34;;;;;;;7.22;2.17;;;20.20;99.90;;;;;;5050557;28;20036;-65
2022/06/10 10:38:03;;;;;;;7.60;2.50;;;20.10;99.90;;;;;;5051162;28;20180;-64
2022/06/10 10:40:43;;;;;;;9.50;2.80;;;20.20;99.90;;;;;;5050416;28;20044;-64
2022/06/10 10:43:18;;;;;;;9.38;2.78;;;20.30;99.90;;;;;;5049178;28;20049;-64
2022/06/10 10:46:03;;;;;;;10.43;2.65;;;20.30;99.90;;;;;;5050632;28;20028;-65
2022/06/10 10:48:33;;;;;;;8.75;2.67;;;20.20;99.90;;;;;;5050089;28;20033;-64
2022/06/10 10:51:21;;;;;;;9.20;2.05;;;20.10;99.90;;;;;;5050361;28;20076;-65
2022/06/10 10:53:50;;;;;;;8.63;2.28;;;20.10;99.90;;;;;;5050567;28;20399;-64
2022/06/10 10:56:17;;;;;;;5.95;2.50;;;20.30;99.90;;;;;;5049050;28;20098;-65
2022/06/10 10:58:52;;;;;;;8.52;2.80;;;20.30;99.90;;;;;;5050599;28;20082;-65
2022/06/10 11:01:47;;;;;;;12.20;2.83;;;20.30;99.90;;;;;;5050005;28;20090;-64
2022/06/10 11:04:24;;;;;;;9.00;2.95;;;20.40;99.90;;;;;;5049149;28;20045;-64
2022/06/10 11:06:58;;;;;;;7.45;2.20;;;20.40;99.90;;;;;;5050849;28;20041;-64
2022/06/10 11:09:25;;;;;;;6.82;2.22;;;20.40;99.90;;;;;;5050315;28;20044;-65
2022/06/10 11:11:52;;;;;;;8.60;2.60;;;20.40;99.90;;;;;;5049803;28;20484;-65
2022/06/10 11:14:34;;;;;;;6.70;2.15;;;20.40;99.90;;;;;;5049702;28;20569;-65
2022/06/10 11:17:11;;;;;;;8.80;2.83;;;20.40;99.90;;;;;;5049249;28;20048;-65
2022/06/10 11:19:37;;;;;;;8.85;2.42;;;20.20;99.90;;;;;;5050232;28;20060;-66
2022/06/10 11:22:21;;;;;;;9.07;2.55;;;20.10;99.90;;;;;;5050539;28;20045;-66
2022/06/10 11:25:25;;;;;;;5.78;1.80;;;20.00;99.90;;;;;;5050597;28;20037;-63
2022/06/10 11:27:50;;;;;;;8.00;2.22;;;19.90;99.90;;;;;;5011755;28;20045;-64
2022/06/10 11:30:24;;;;;;;7.05;1.98;;;20.10;99.90;;;;;;5013819;28;20511;-66
2022/06/10 11:32:58;;;;;;;8.10;2.03;;;20.10;99.90;;;;;;5032265;28;20053;-67
2022/06/10 11:35:26;;;;;;;6.22;2.35;;;20.10;99.90;;;;;;5031995;28;20143;-65
2022/06/10 11:38:06;;;;;;;6.85;1.70;;;20.20;99.90;;;;;;5015669;28;20045;-65
2022/06/10 11:40:43;;;;;;;6.78;1.98;;;20.20;99.90;;;;;;5031878;28;20654;-67
2022/06/10 11:43:34;;;;;;;8.35;2.22;;;20.10;99.90;;;;;;5015417;28;20476;-66
2022/06/10 11:46:02;;;;;;;9.27;2.10;;;20.00;99.90;;;;;;5015356;28;20068;-65
2022/06/10 11:48:42;;;;;;;7.57;2.65;;;20.00;99.90;;;;;;5015392;28;20129;-66
2022/06/10 11:51:33;;;;;;;8.77;2.40;;;20.00;99.90;;;;;;5031816;28;20061;-64
2022/06/10 11:54:12;;;;;;;7.38;2.10;;;20.10;99.90;;;;;;5015136;28;20111;-65
2022/06/10 12:00:19;;;;;;;9.07;2.10;;;20.20;99.90;;;;;;5031423;28;20049;-66
2022/06/10 12:03:11;;;;;;;8.70;2.30;;;20.40;99.90;;;;;;5014520;28;20069;-65
2022/06/10 12:05:49;;;;;;;11.30;2.28;;;20.50;99.90;;;;;;5034589;28;20060;-64
2022/06/10 12:08:58;;;;;;;9.30;2.45;;;20.60;99.90;;;;;;5053886;28;20458;-64
2022/06/10 12:11:42;;;;;;;9.10;2.20;;;20.70;99.90;;;;;;5052702;28;20045;-64
2022/06/10 12:14:20;;;;;;;12.20;2.47;;;20.70;99.90;;;;;;5052441;28;20095;-67
2022/06/10 12:16:54;;;;;;;7.97;2.00;;;20.60;99.90;;;;;;5052169;28;20053;-65
2022/06/10 12:19:30;;;;;;;8.85;2.38;;;20.70;99.90;;;;;;5052334;28;20051;-66
2022/06/10 12:21:55;;;;;;;8.23;2.88;;;20.80;99.90;;;;;;5047945;28;20033;-64
2022/06/10 12:24:21;;;;;;;9.65;2.45;;;20.70;99.90;;;;;;5053468;28;20033;-65
2022/06/10 12:26:59;;;;;;;6.72;2.33;;;20.80;99.90;;;;;;5051691;28;20041;-66
2022/06/10 12:29:43;;;;;;;6.63;2.20;;;20.80;99.90;;;;;;5052003;28;20040;-65
2022/06/10 12:32:44;;;;;;;10.40;2.33;;;20.80;99.90;;;;;;5053119;28;20037;-65
2022/06/10 12:35:19;;;;;;;9.98;2.58;;;20.90;99.90;;;;;;5051544;28;20041;-65
2022/06/10 12:37:54;;;;;;;7.72;2.30;;;20.80;99.90;;;;;;5051269;28;20128;-66
2022/06/10 12:40:40;;;;;;;6.38;2.65;;;20.80;99.90;;;;;;5044882;28;20048;-65
2022/06/10 12:43:17;;;;;;;6.97;2.40;;;20.70;99.90;;;;;;5052161;28;20033;-65
2022/06/10 12:46:03;;;;;;;10.15;2.65;;;20.50;99.90;;;;;;5034691;28;20055;-65
2022/06/10 12:48:33;;;;;;;7.70;2.40;;;20.50;99.90;;;;;;5052708;28;20041;-65
2022/06/10 12:51:03;;;;;;;11.93;2.75;;;20.40;99.90;;;;;;5052083;28;20048;-66
2022/06/10 12:54:05;;;;;;;7.30;2.50;;;20.50;99.90;;;;;;5051444;28;20048;-66
2022/06/10 12:56:37;;;;;;;7.75;2.63;;;20.60;99.90;;;;;;5052777;28;20044;-65
2022/06/10 12:59:12;;;;;;;10.50;2.35;;;20.60;99.90;;;;;;5052616;28;20052;-64
2022/06/10 13:01:37;;;;;;;12.27;3.25;;;20.70;99.90;;;;;;5052625;28;20060;-67
2022/06/10 13:04:34;;;;;;;10.75;2.50;;;20.80;99.90;;;;;;5052680;28;20052;-66
2022/06/10 13:07:05;;;;;;;8.07;2.22;;;20.90;99.90;;;;;;5051537;28;20116;-65
2022/06/10 13:09:39;;;;;;;12.23;2.30;;;21.00;99.90;;;;;;5052798;28;20047;-65
2022/06/10 13:12:08;;;;;;;4.80;2.00;;;21.20;99.90;;;;;;5052241;28;20032;-65
2022/06/10 13:14:35;;;;;;;5.35;2.42;;;21.30;99.90;;;;;;5052602;28;20404;-66
2022/06/10 13:17:25;;;;;;;7.55;2.20;;;21.40;99.90;;;;;;5052317;28;20045;-66
2022/06/10 13:19:53;;;;;;;8.07;2.10;;;21.40;99.90;;;;;;5050906;28;20051;-65
2022/06/10 13:22:19;;;;;;;8.27;2.33;;;21.30;99.90;;;;;;5051339;28;20033;-65
2022/06/10 13:25:07;;;;;;;7.03;2.08;;;21.30;99.90;;;;;;5052344;28;20033;-66
2022/06/10 13:27:42;;;;;;;7.63;2.38;;;21.20;99.90;;;;;;5052180;28;20033;-64
2022/06/10 13:30:25;;;;;;;9.52;2.45;;;21.30;99.90;;;;;;5050527;28;20175;-66